createdAt,value
2019-01-31T00:00:56.246Z,100.00
2019-01-31T00:03:37.703Z,100.00
2019-01-31T00:06:40.246Z,100.00
2019-01-31T00:09:20.386Z,100.00
2019-01-31T00:12:03.627Z,100.00
2019-01-31T00:14:40.131Z,100.00
2019-01-31T00:17:25.638Z,100.00
2019-01-31T00:20:20.781Z,100.00
2019-01-31T00:23:20.630Z,100.00
2019-01-31T00:26:14.592Z,100.00
2019-01-31T00:29:00.872Z,100.00
2019-01-31T00:32:01.954Z,100.00
2019-01-31T00:34:52.490Z,100.00
2019-01-31T00:37:52.830Z,100.00
2019-01-31T00:40:38.949Z,100.00
2019-01-31T00:43:20.670Z,100.00
2019-01-31T00:46:12.158Z,100.00
2019-01-31T00:49:03.744Z,100.00
2019-01-31T00:51:40.753Z,100.00
2019-01-31T00:54:29.449Z,100.00
2019-01-31T00:57:19.988Z,100.00
2019-01-31T01:00:12.270Z,100.00
2019-01-31T01:02:59.196Z,100.00
2019-01-31T01:05:51.787Z,100.00
2019-01-31T01:08:36.618Z,100.00
2019-01-31T01:11:18.266Z,100.00
2019-01-31T01:14:02.613Z,100.00
2019-01-31T01:16:47.408Z,100.00
2019-01-31T01:19:36.024Z,100.00
2019-01-31T01:22:15.193Z,100.00
2019-01-31T01:24:53.854Z,100.00
2019-01-31T01:27:33.580Z,100.00
2019-01-31T01:30:22.185Z,100.00
2019-01-31T01:33:10.002Z,100.00
2019-01-31T01:35:42.805Z,100.00
2019-01-31T01:38:19.208Z,100.00
2019-01-31T01:41:10.252Z,100.00
2019-01-31T01:43:49.896Z,100.00
2019-01-31T01:46:26.102Z,100.00
2019-01-31T01:49:11.686Z,100.00
2019-01-31T01:51:52.468Z,100.00
2019-01-31T01:54:51.088Z,100.00
2019-01-31T01:57:27.553Z,100.00
2019-01-31T02:00:11.898Z,100.00
2019-01-31T02:02:54.286Z,100.00
2019-01-31T02:05:38.987Z,100.00
2019-01-31T02:08:24.183Z,100.00
2019-01-31T02:11:00.635Z,100.00
2019-01-31T02:13:45.368Z,100.00
2019-01-31T02:16:35.281Z,100.00
2019-01-31T02:19:19.545Z,100.00
2019-01-31T02:22:04.724Z,100.00
2019-01-31T02:24:41.247Z,100.00
2019-01-31T02:27:24.633Z,100.00
2019-01-31T02:30:07.676Z,100.00
2019-01-31T02:33:11.879Z,100.00
2019-01-31T02:35:50.601Z,100.00
2019-01-31T02:38:34.575Z,100.00
2019-01-31T02:41:29.716Z,100.00
2019-01-31T02:44:37.748Z,100.00
2019-01-31T02:47:37.481Z,100.00
2019-01-31T02:50:31.502Z,100.00
2019-01-31T02:53:10.014Z,100.00
2019-01-31T02:56:07.636Z,100.00
2019-01-31T02:58:40.443Z,100.00
2019-01-31T03:01:17.762Z,100.00
2019-01-31T03:03:59.462Z,100.00
2019-01-31T03:07:09.435Z,100.00
2019-01-31T03:09:55.246Z,100.00
2019-01-31T03:12:50.886Z,100.00
2019-01-31T03:15:24.750Z,100.00
2019-01-31T03:18:03.291Z,100.00
2019-01-31T03:20:36.103Z,100.00
2019-01-31T03:23:09.052Z,100.00
2019-01-31T03:25:41.735Z,100.00
2019-01-31T03:28:29.330Z,100.00
2019-01-31T03:31:30.635Z,100.00
2019-01-31T03:34:24.320Z,100.00
2019-01-31T03:37:29.709Z,100.00
2019-01-31T03:40:37.945Z,100.00
2019-01-31T03:43:31.490Z,100.00
2019-01-31T03:46:16.486Z,100.00
2019-01-31T03:49:08.972Z,100.00
2019-01-31T03:52:18.117Z,100.00
2019-01-31T03:54:52.511Z,100.00
2019-01-31T03:57:34.187Z,100.00
2019-01-31T04:00:32.326Z,100.00
2019-01-31T04:03:26.234Z,100.00
2019-01-31T04:06:00.545Z,100.00
2019-01-31T04:08:30.782Z,100.00
2019-01-31T04:11:04.854Z,100.00
2019-01-31T04:13:34.712Z,100.00
2019-01-31T04:16:06.484Z,100.00
2019-01-31T04:18:38.248Z,100.00
2019-01-31T04:21:09.034Z,100.00
2019-01-31T04:23:38.864Z,100.00
2019-01-31T04:26:09.343Z,100.00
2019-01-31T04:28:40.090Z,100.00
2019-01-31T04:31:09.981Z,100.00
2019-01-31T04:33:40.955Z,100.00
2019-01-31T04:36:11.097Z,100.00
2019-01-31T04:38:43.190Z,100.00
2019-01-31T04:41:12.998Z,100.00
2019-01-31T04:43:43.820Z,100.00
2019-01-31T04:46:14.946Z,100.00
2019-01-31T04:48:44.768Z,100.00
2019-01-31T04:51:15.699Z,100.00
2019-01-31T04:53:47.818Z,100.00
2019-01-31T04:56:18.093Z,100.00
2019-01-31T04:58:48.332Z,100.00
2019-01-31T05:01:26.639Z,100.00
2019-01-31T05:04:06.483Z,100.00
2019-01-31T05:06:47.446Z,100.00
2019-01-31T05:09:24.498Z,100.00
2019-01-31T05:12:07.986Z,100.00
2019-01-31T05:14:49.157Z,100.00
2019-01-31T05:17:26.796Z,100.00
2019-01-31T05:20:01.741Z,100.00
2019-01-31T05:22:33.972Z,100.00
2019-01-31T05:25:06.609Z,100.00
2019-01-31T05:27:37.361Z,100.00
2019-01-31T05:30:13.657Z,100.00
2019-01-31T05:32:44.885Z,100.00
2019-01-31T05:35:16.631Z,100.00
2019-01-31T05:37:47.119Z,100.00
2019-01-31T05:40:17.397Z,100.00
2019-01-31T05:42:48.587Z,100.00
2019-01-31T05:45:19.021Z,100.00
2019-01-31T05:47:49.579Z,100.00
2019-01-31T05:50:21.054Z,100.00
2019-01-31T05:52:51.646Z,100.00
2019-01-31T05:55:25.438Z,100.00
2019-01-31T05:57:55.704Z,100.00
2019-01-31T06:00:28.568Z,100.00
2019-01-31T06:03:02.030Z,100.00
2019-01-31T06:05:35.679Z,100.00
2019-01-31T06:08:07.307Z,100.00
2019-01-31T06:10:37.634Z,100.00
2019-01-31T06:13:07.442Z,100.00
2019-01-31T06:15:38.844Z,100.00
2019-01-31T06:18:08.938Z,100.00
2019-01-31T06:20:55.292Z,100.00
2019-01-31T06:24:07.594Z,100.00
2019-01-31T06:27:03.485Z,100.00
2019-01-31T06:29:50.743Z,100.00
2019-01-31T06:32:26.237Z,100.00
2019-01-31T06:34:57.090Z,100.00
2019-01-31T06:37:30.816Z,100.00
2019-01-31T06:40:01.306Z,100.00
2019-01-31T06:42:34.825Z,100.00
2019-01-31T06:45:08.012Z,100.00
2019-01-31T06:47:37.837Z,100.00
2019-01-31T06:50:09.043Z,100.00
2019-01-31T06:52:43.290Z,100.00
2019-01-31T06:55:15.137Z,100.00
2019-01-31T06:57:46.107Z,100.00
2019-01-31T07:00:23.358Z,100.00
2019-01-31T07:02:58.191Z,100.00
2019-01-31T07:05:28.476Z,100.00
2019-01-31T07:07:58.261Z,100.00
2019-01-31T07:10:28.313Z,100.00
2019-01-31T07:12:58.116Z,100.00
2019-01-31T07:15:41.202Z,100.00
2019-01-31T07:18:20.094Z,100.00
2019-01-31T07:20:57.729Z,100.00
2019-01-31T07:23:39.697Z,100.00
2019-01-31T07:26:15.043Z,100.00
2019-01-31T07:28:47.740Z,100.00
2019-01-31T07:31:17.584Z,100.00
2019-01-31T07:33:47.458Z,100.00
2019-01-31T07:36:17.273Z,100.00
2019-01-31T07:38:47.085Z,100.00
2019-01-31T07:41:16.865Z,100.00
2019-01-31T07:43:46.939Z,100.00
2019-01-31T07:46:17.038Z,100.00
2019-01-31T07:48:46.829Z,100.00
2019-01-31T07:51:16.647Z,100.00
2019-01-31T07:53:46.444Z,100.00
2019-01-31T07:56:16.229Z,100.00
2019-01-31T07:58:46.062Z,100.00
2019-01-31T08:01:15.893Z,100.00
2019-01-31T08:03:50.071Z,100.00
2019-01-31T08:06:20.325Z,100.00
2019-01-31T08:08:50.416Z,100.00
2019-01-31T08:11:20.236Z,100.00
2019-01-31T08:13:50.576Z,100.00
2019-01-31T08:16:22.840Z,100.00
2019-01-31T08:18:53.473Z,100.00
2019-01-31T08:21:25.149Z,100.00
2019-01-31T08:23:55.095Z,100.00
2019-01-31T08:26:28.378Z,100.00
2019-01-31T08:28:59.315Z,100.00
2019-01-31T08:31:29.111Z,100.00
2019-01-31T08:33:58.876Z,100.00
2019-01-31T08:36:28.701Z,100.00
2019-01-31T08:38:58.610Z,100.00
2019-01-31T08:41:30.475Z,100.00
2019-01-31T08:44:00.296Z,100.00
2019-01-31T08:46:30.613Z,100.00
2019-01-31T08:49:02.492Z,100.00
2019-01-31T08:51:33.471Z,100.00
2019-01-31T08:54:04.074Z,100.00
2019-01-31T08:56:46.804Z,100.00
2019-01-31T08:59:20.414Z,100.00
2019-01-31T09:01:50.175Z,100.00
2019-01-31T09:04:19.986Z,100.00
2019-01-31T09:06:51.219Z,100.00
2019-01-31T09:09:23.611Z,100.00
2019-01-31T09:11:56.315Z,100.00
2019-01-31T09:14:26.271Z,100.00
2019-01-31T09:16:58.792Z,100.00
2019-01-31T09:19:30.390Z,100.00
2019-01-31T09:22:06.093Z,100.00
2019-01-31T09:24:58.375Z,100.00
2019-01-31T09:27:39.387Z,100.00
2019-01-31T09:30:47.503Z,100.00
2019-01-31T09:33:49.178Z,100.00
2019-01-31T09:36:51.579Z,100.00
2019-01-31T09:39:53.370Z,100.00
2019-01-31T09:42:50.421Z,100.00
2019-01-31T09:45:46.364Z,100.00
2019-01-31T09:48:30.233Z,100.00
2019-01-31T09:51:11.610Z,100.00
2019-01-31T09:54:05.211Z,100.00
2019-01-31T09:56:42.336Z,100.00
2019-01-31T09:59:39.758Z,100.00
2019-01-31T10:02:28.647Z,100.00
2019-01-31T10:05:15.153Z,100.00
2019-01-31T10:07:54.192Z,100.00
2019-01-31T10:10:50.101Z,100.00
2019-01-31T10:29:41.002Z,100.00
2019-01-31T10:52:30.557Z,100.00
2019-01-31T10:57:55.754Z,100.00
2019-01-31T11:00:45.449Z,100.00
2019-01-31T11:03:24.994Z,100.00
2019-01-31T11:06:17.982Z,100.00
2019-01-31T11:09:01.691Z,100.00
2019-01-31T11:11:56.302Z,100.00
2019-01-31T11:14:35.963Z,100.00
2019-01-31T11:17:15.916Z,100.00
2019-01-31T11:20:24.688Z,100.00
2019-01-31T11:23:22.673Z,100.00
2019-01-31T11:26:20.376Z,100.00
2019-01-31T11:29:25.396Z,100.00
2019-01-31T11:32:24.953Z,100.00
2019-01-31T11:35:08.518Z,100.00
2019-01-31T11:38:20.507Z,100.00
2019-01-31T11:41:15.550Z,100.00
2019-01-31T11:44:13.579Z,100.00
2019-01-31T11:46:53.514Z,100.00
2019-01-31T11:49:35.847Z,99.92
2019-01-31T11:52:26.928Z,100.00
2019-01-31T11:55:18.725Z,100.00
2019-01-31T11:58:09.526Z,100.00
2019-01-31T12:00:42.028Z,100.00
2019-01-31T12:03:15.889Z,100.00
2019-01-31T12:05:46.892Z,99.64
2019-01-31T12:08:16.623Z,98.72
2019-01-31T12:10:46.488Z,99.47
2019-01-31T12:13:23.280Z,98.67
2019-01-31T12:15:47.988Z,96.41
2019-01-31T12:18:18.041Z,95.35
2019-01-31T12:20:47.833Z,96.40
2019-01-31T12:23:17.805Z,94.46
2019-01-31T12:25:47.630Z,95.10
2019-01-31T12:28:17.427Z,96.35
2019-01-31T12:30:47.247Z,97.70
2019-01-31T12:33:19.937Z,96.46
2019-01-31T12:35:50.036Z,96.80
2019-01-31T12:38:19.811Z,97.59
2019-01-31T12:40:49.619Z,95.52
2019-01-31T12:43:19.773Z,96.07
2019-01-31T12:45:49.556Z,96.06
2019-01-31T12:48:19.344Z,95.03
2019-01-31T12:50:49.443Z,92.68
2019-01-31T12:53:19.431Z,91.68
2019-01-31T12:55:49.343Z,91.18
2019-01-31T12:58:19.299Z,90.76
2019-01-31T13:00:49.290Z,89.69
2019-01-31T13:03:24.162Z,86.41
2019-01-31T13:05:54.593Z,86.41
2019-01-31T13:08:24.585Z,87.72
2019-01-31T13:10:54.445Z,87.72
2019-01-31T13:13:24.341Z,84.31
2019-01-31T13:15:54.286Z,84.31
2019-01-31T13:18:24.226Z,84.18
2019-01-31T13:20:54.294Z,83.92
2019-01-31T13:23:24.111Z,84.61
2019-01-31T13:25:54.100Z,85.53
2019-01-31T13:28:24.946Z,85.40
2019-01-31T13:30:54.940Z,84.90
2019-01-31T13:33:25.086Z,83.56
2019-01-31T13:35:54.913Z,83.56
2019-01-31T13:38:24.821Z,83.79
2019-01-31T13:40:54.752Z,83.56
2019-01-31T13:43:24.629Z,83.47
2019-01-31T13:46:08.722Z,85.04
2019-01-31T13:48:47.595Z,84.28
2019-01-31T13:51:25.012Z,84.26
2019-01-31T13:54:04.891Z,83.49
2019-01-31T13:56:45.834Z,83.31
2019-01-31T13:59:12.044Z,83.73
2019-01-31T14:01:42.515Z,84.00
2019-01-31T14:04:14.717Z,84.17
2019-01-31T14:06:50.136Z,84.21
2019-01-31T14:09:20.957Z,83.47
2019-01-31T14:11:51.668Z,83.71
2019-01-31T14:14:22.175Z,83.29
2019-01-31T14:16:52.402Z,83.56
2019-01-31T14:19:22.547Z,84.85
2019-01-31T14:21:57.359Z,84.44
2019-01-31T14:24:27.707Z,84.05
2019-01-31T14:26:59.182Z,84.06
2019-01-31T14:29:29.643Z,85.04
2019-01-31T14:32:02.143Z,85.79
2019-01-31T14:34:35.143Z,86.63
2019-01-31T14:37:09.793Z,87.26
2019-01-31T14:39:40.785Z,87.02
2019-01-31T14:42:14.430Z,87.99
2019-01-31T14:44:45.178Z,89.38
2019-01-31T14:47:20.574Z,89.92
2019-01-31T14:49:50.381Z,91.72
2019-01-31T14:52:24.316Z,92.76
2019-01-31T14:54:54.211Z,97.02
2019-01-31T14:57:28.522Z,97.53
2019-01-31T14:59:59.175Z,97.53
2019-01-31T15:02:29.161Z,98.43
2019-01-31T15:04:59.012Z,100.00
2019-01-31T15:07:32.421Z,100.00
2019-01-31T15:10:02.159Z,100.00
2019-01-31T15:12:36.151Z,100.00
2019-01-31T15:15:10.278Z,100.00
2019-01-31T15:17:42.078Z,100.00
2019-01-31T15:20:20.804Z,100.00
2019-01-31T15:22:51.609Z,100.00
2019-01-31T15:25:21.634Z,100.00
2019-01-31T15:27:53.531Z,100.00
2019-01-31T15:30:32.200Z,100.00
2019-01-31T15:33:05.569Z,100.00
2019-01-31T15:35:35.466Z,100.00
2019-01-31T15:38:05.746Z,100.00
2019-01-31T15:40:39.013Z,100.00
2019-01-31T15:43:09.301Z,100.00
2019-01-31T15:45:40.483Z,100.00
2019-01-31T15:48:11.024Z,100.00
2019-01-31T15:50:41.315Z,100.00
2019-01-31T15:53:11.332Z,100.00
2019-01-31T15:55:44.136Z,100.00
2019-01-31T15:58:28.899Z,100.00
2019-01-31T16:01:11.024Z,100.00
2019-01-31T16:04:01.998Z,100.00
2019-01-31T16:06:46.646Z,100.00
2019-01-31T16:09:27.133Z,100.00
2019-01-31T16:12:02.994Z,100.00
2019-01-31T16:14:33.949Z,100.00
2019-01-31T16:17:08.080Z,100.00
2019-01-31T16:19:44.221Z,100.00
2019-01-31T16:22:27.991Z,100.00
2019-01-31T16:25:06.928Z,100.00
2019-01-31T16:27:42.317Z,100.00
2019-01-31T16:30:23.613Z,100.00
2019-01-31T16:33:01.510Z,100.00
2019-01-31T16:35:37.433Z,100.00
2019-01-31T16:38:10.659Z,100.00
2019-01-31T16:40:44.880Z,100.00
2019-01-31T16:43:17.988Z,100.00
2019-01-31T16:45:49.839Z,100.00
2019-01-31T16:48:25.722Z,100.00
2019-01-31T16:50:55.922Z,100.00
2019-01-31T16:53:26.101Z,100.00
2019-01-31T16:55:56.033Z,100.00
2019-01-31T16:58:26.686Z,100.00
2019-01-31T17:00:59.318Z,100.00
2019-01-31T17:03:33.190Z,100.00
2019-01-31T17:06:05.970Z,100.00
2019-01-31T17:08:37.386Z,100.00
2019-01-31T17:11:07.363Z,100.00
2019-01-31T17:13:41.499Z,100.00
2019-01-31T17:16:21.757Z,100.00
2019-01-31T17:18:54.903Z,100.00
2019-01-31T17:21:29.180Z,100.00
2019-01-31T17:23:59.833Z,100.00
2019-01-31T17:26:30.339Z,100.00
2019-01-31T17:29:00.299Z,100.00
2019-01-31T17:31:38.043Z,100.00
2019-01-31T17:34:08.762Z,100.00
2019-01-31T17:36:39.465Z,100.00
2019-01-31T17:39:10.749Z,100.00
2019-01-31T17:41:41.117Z,100.00
2019-01-31T17:44:11.501Z,100.00
2019-01-31T17:46:46.315Z,100.00
2019-01-31T17:49:18.407Z,100.00
2019-01-31T17:51:56.790Z,100.00
2019-01-31T17:54:28.537Z,100.00
2019-01-31T17:57:01.462Z,100.00
2019-01-31T17:59:33.456Z,100.00
2019-01-31T18:02:06.105Z,100.00
2019-01-31T18:04:37.471Z,100.00
2019-01-31T18:07:12.214Z,100.00
2019-01-31T18:09:47.067Z,100.00
2019-01-31T18:12:24.239Z,100.00
2019-01-31T18:15:11.612Z,100.00
2019-01-31T18:18:03.797Z,100.00
2019-01-31T18:20:39.800Z,100.00
2019-01-31T18:23:16.407Z,100.00
2019-01-31T18:25:47.302Z,100.00
2019-01-31T18:28:19.071Z,100.00
2019-01-31T18:30:50.814Z,100.00
2019-01-31T18:33:20.788Z,100.00
2019-01-31T18:35:50.824Z,100.00
2019-01-31T18:38:21.327Z,100.00
2019-01-31T18:40:51.764Z,100.00
2019-01-31T18:43:21.920Z,100.00
2019-01-31T18:45:53.626Z,100.00
2019-01-31T18:48:23.855Z,100.00
2019-01-31T18:50:54.657Z,100.00
2019-01-31T18:53:34.554Z,100.00
2019-01-31T18:56:06.445Z,100.00
2019-01-31T18:58:37.013Z,100.00
2019-01-31T19:01:07.664Z,100.00
2019-01-31T19:03:47.130Z,100.00
2019-01-31T19:06:20.675Z,100.00
2019-01-31T19:08:52.047Z,100.00
2019-01-31T19:11:22.570Z,100.00
2019-01-31T19:13:54.461Z,100.00
2019-01-31T19:16:25.110Z,100.00
2019-01-31T19:18:57.455Z,100.00
2019-01-31T19:21:27.840Z,100.00
2019-01-31T19:24:00.321Z,100.00
2019-01-31T19:26:36.576Z,100.00
2019-01-31T19:29:11.089Z,100.00
2019-01-31T19:31:45.718Z,100.00
2019-01-31T19:34:18.993Z,100.00
2019-01-31T19:36:56.051Z,100.00
2019-01-31T19:39:35.591Z,100.00
2019-01-31T19:42:08.663Z,100.00
2019-01-31T19:44:41.923Z,100.00
2019-01-31T19:47:17.917Z,100.00
2019-01-31T19:49:49.774Z,100.00
2019-01-31T19:52:24.383Z,100.00
2019-01-31T19:54:54.211Z,100.00
2019-01-31T19:57:34.940Z,100.00
2019-01-31T20:00:11.573Z,100.00
2019-01-31T20:02:42.648Z,100.00
2019-01-31T20:05:17.583Z,100.00
2019-01-31T20:07:52.364Z,100.00
2019-01-31T20:10:25.539Z,100.00
2019-01-31T20:12:57.968Z,100.00
2019-01-31T20:15:30.461Z,100.00
2019-01-31T20:18:01.123Z,100.00
2019-01-31T20:20:31.837Z,100.00
2019-01-31T20:23:25.140Z,100.00
2019-01-31T20:26:09.971Z,100.00
2019-01-31T20:28:40.477Z,100.00
2019-01-31T20:31:30.012Z,100.00
2019-01-31T20:34:02.203Z,100.00
2019-01-31T20:36:35.281Z,100.00
2019-01-31T20:39:11.448Z,100.00
2019-01-31T20:41:54.456Z,100.00
2019-01-31T20:44:23.362Z,100.00
2019-01-31T20:46:58.187Z,100.00
2019-01-31T20:49:31.297Z,100.00
2019-01-31T20:52:02.751Z,100.00
2019-01-31T20:54:34.487Z,100.00
2019-01-31T20:57:16.573Z,100.00
2019-01-31T20:59:47.625Z,100.00
2019-01-31T21:02:18.608Z,100.00
2019-01-31T21:04:49.574Z,100.00
2019-01-31T21:07:25.796Z,100.00
2019-01-31T21:09:59.771Z,100.00
2019-01-31T21:12:30.450Z,100.00
2019-01-31T21:15:00.785Z,100.00
2019-01-31T21:17:37.316Z,100.00
2019-01-31T21:20:10.133Z,100.00
2019-01-31T21:22:45.197Z,100.00
2019-01-31T21:25:17.544Z,100.00
2019-01-31T21:27:48.367Z,100.00
2019-01-31T21:30:25.664Z,100.00
2019-01-31T21:32:55.923Z,100.00
2019-01-31T21:35:27.629Z,100.00
2019-01-31T21:37:58.336Z,100.00
2019-01-31T21:40:33.703Z,100.00
2019-01-31T21:43:05.068Z,100.00
2019-01-31T21:45:35.574Z,100.00
2019-01-31T21:48:08.269Z,100.00
2019-01-31T21:50:39.675Z,100.00
2019-01-31T21:53:09.954Z,100.00
2019-01-31T21:55:42.269Z,100.00
2019-01-31T21:58:12.807Z,100.00
2019-01-31T22:00:42.998Z,100.00
2019-01-31T22:03:17.860Z,100.00
2019-01-31T22:05:50.019Z,100.00
2019-01-31T22:08:19.836Z,100.00
2019-01-31T22:10:50.255Z,100.00
2019-01-31T22:13:21.120Z,100.00
2019-01-31T22:15:51.353Z,100.00
2019-01-31T22:18:21.380Z,100.00
2019-01-31T22:20:51.617Z,100.00
2019-01-31T22:23:23.383Z,100.00
2019-01-31T22:25:53.567Z,100.00
2019-01-31T22:28:23.592Z,100.00
2019-01-31T22:30:53.513Z,100.00
2019-01-31T22:33:25.068Z,100.00
2019-01-31T22:35:55.606Z,100.00
2019-01-31T22:38:25.619Z,100.00
2019-01-31T22:40:57.300Z,100.00
2019-01-31T22:43:38.774Z,100.00
2019-01-31T22:46:23.300Z,100.00
2019-01-31T22:48:59.251Z,100.00
2019-01-31T22:51:32.092Z,100.00
2019-01-31T22:54:10.353Z,100.00
2019-01-31T22:57:06.812Z,100.00
2019-01-31T22:59:49.737Z,100.00
2019-01-31T23:02:20.256Z,100.00
2019-01-31T23:05:14.932Z,100.00
2019-01-31T23:08:06.766Z,100.00
2019-01-31T23:10:48.276Z,100.00
2019-01-31T23:13:34.066Z,100.00
2019-01-31T23:16:07.413Z,100.00
2019-01-31T23:18:39.579Z,100.00
2019-01-31T23:21:12.272Z,100.00
2019-01-31T23:23:43.085Z,100.00
2019-01-31T23:26:13.619Z,100.00
2019-01-31T23:28:44.735Z,100.00
2019-01-31T23:31:16.974Z,100.00
2019-01-31T23:33:48.568Z,100.00
2019-01-31T23:36:21.759Z,100.00
2019-01-31T23:38:54.057Z,100.00
2019-01-31T23:41:30.794Z,100.00
2019-01-31T23:44:03.103Z,100.00
2019-01-31T23:46:37.084Z,100.00
2019-01-31T23:49:07.639Z,100.00
2019-01-31T23:51:38.438Z,100.00
2019-01-31T23:54:09.597Z,100.00
2019-01-31T23:56:46.496Z,100.00
2019-01-31T23:59:17.611Z,100.00
